createdAt,value
2023-04-18T00:04:18.093Z,6.53
2023-04-18T00:09:21.221Z,6.18
2023-04-18T00:14:24.677Z,6.55
2023-04-18T00:19:28.660Z,6.82
2023-04-18T00:24:31.484Z,7.60
2023-04-18T00:29:34.015Z,6.43
2023-04-18T00:34:37.956Z,7.55
2023-04-18T00:39:40.501Z,7.82
2023-04-18T00:44:43.130Z,7.65
2023-04-18T00:49:47.275Z,7.47
2023-04-18T00:54:50.216Z,8.27
2023-04-18T00:59:52.891Z,8.05
2023-04-18T01:04:58.480Z,9.55
2023-04-18T01:10:01.538Z,10.48
2023-04-18T01:15:04.685Z,10.68
2023-04-18T01:20:10.075Z,10.13
2023-04-18T01:25:14.397Z,10.57
2023-04-18T01:30:17.878Z,11.63
2023-04-18T01:35:20.689Z,11.27
2023-04-18T01:40:24.928Z,11.10
2023-04-18T01:45:29.133Z,11.32
2023-04-18T01:50:32.070Z,12.07
2023-04-18T01:55:35.975Z,11.73
2023-04-18T02:00:38.619Z,11.77
2023-04-18T02:05:41.649Z,11.27
2023-04-18T02:10:47.370Z,13.38
2023-04-18T02:15:50.894Z,12.15
2023-04-18T02:20:53.513Z,11.68
2023-04-18T02:25:59.126Z,12.65
2023-04-18T02:31:01.805Z,12.85
2023-04-18T02:36:04.715Z,12.43
2023-04-18T02:41:08.833Z,11.80
2023-04-18T02:46:11.800Z,12.32
2023-04-18T02:51:14.598Z,11.80
2023-04-18T02:56:19.571Z,11.32
2023-04-18T03:01:51.050Z,12.38
2023-04-18T03:06:56.283Z,12.95
2023-04-18T03:12:02.237Z,12.82
2023-04-18T03:17:06.552Z,13.05
2023-04-18T03:22:15.316Z,11.70
2023-04-18T03:27:27.214Z,12.35
2023-04-18T03:32:30.394Z,11.82
2023-04-18T03:37:33.046Z,13.32
2023-04-18T03:42:38.590Z,12.20
2023-04-18T03:47:41.429Z,11.13
2023-04-18T03:52:44.313Z,10.85
2023-04-18T03:57:49.336Z,10.10
2023-04-18T04:03:00.589Z,10.75
2023-04-18T04:08:03.480Z,10.52
2023-04-18T04:13:07.475Z,10.10
2023-04-18T04:18:13.716Z,9.40
2023-04-18T04:23:19.140Z,9.68
2023-04-18T04:28:25.918Z,9.73
2023-04-18T04:33:34.341Z,9.77
2023-04-18T04:38:40.720Z,9.10
2023-04-18T04:43:46.946Z,9.35
2023-04-18T04:48:54.475Z,8.77
2023-04-18T04:53:57.142Z,8.27
2023-04-18T04:59:01.871Z,9.32
2023-04-18T05:04:15.661Z,8.55
2023-04-18T05:09:18.382Z,8.30
2023-04-18T05:14:22.365Z,7.97
2023-04-18T05:19:25.026Z,7.13
2023-04-18T05:24:27.589Z,7.15
2023-04-18T05:29:31.457Z,7.75
2023-04-18T05:34:38.041Z,7.57
2023-04-18T05:39:41.375Z,7.32
2023-04-18T05:44:45.397Z,6.47
2023-04-18T05:49:48.237Z,6.90
2023-04-18T05:54:51.216Z,7.20
2023-04-18T05:59:55.151Z,6.80
2023-04-18T06:04:57.915Z,7.10
2023-04-18T06:10:00.571Z,7.50
2023-04-18T06:15:05.530Z,7.47
2023-04-18T06:20:08.971Z,7.50
2023-04-18T06:25:11.602Z,8.70
2023-04-18T06:30:16.012Z,8.50
2023-04-18T06:35:18.724Z,8.45
2023-04-18T06:40:21.408Z,7.55
2023-04-18T06:45:25.500Z,7.72
2023-04-18T06:50:28.262Z,7.80
2023-04-18T06:55:31.012Z,8.05
2023-04-18T07:00:34.927Z,9.55
2023-04-18T07:05:37.858Z,8.02
2023-04-18T07:10:41.062Z,8.63
2023-04-18T07:15:45.018Z,9.02
2023-04-18T07:20:47.729Z,9.57
2023-04-18T07:25:50.704Z,8.88
2023-04-18T07:30:55.323Z,8.93
2023-04-18T07:35:58.087Z,8.35
2023-04-18T07:41:01.218Z,8.48
2023-04-18T07:46:06.695Z,7.45
2023-04-18T07:51:09.671Z,8.57
2023-04-18T07:56:14.527Z,8.38
2023-04-18T08:01:20.861Z,7.60
2023-04-18T08:06:23.523Z,7.50
2023-04-18T08:11:26.191Z,7.32
2023-04-18T08:16:30.200Z,7.55
2023-04-18T08:21:33.198Z,7.72
2023-04-18T08:26:35.820Z,7.43
2023-04-18T08:31:40.089Z,7.00
2023-04-18T08:36:42.838Z,7.65
2023-04-18T08:41:49.148Z,8.43
2023-04-18T08:46:54.508Z,7.55
2023-04-18T08:51:58.074Z,7.78
2023-04-18T08:57:07.382Z,6.72
2023-04-18T09:02:11.872Z,7.13
2023-04-18T09:07:15.055Z,7.80
2023-04-18T09:12:18.366Z,7.38
2023-04-18T09:17:33.839Z,7.07
2023-04-18T09:22:47.176Z,7.43
2023-04-18T09:27:49.731Z,7.05
2023-04-18T09:33:00.206Z,7.20
2023-04-18T09:38:03.186Z,7.18
2023-04-18T09:43:18.596Z,7.50
2023-04-18T09:48:22.730Z,7.30
2023-04-18T09:53:25.584Z,7.70
2023-04-18T09:58:30.391Z,7.57
2023-04-18T10:03:36.276Z,8.35
2023-04-18T10:08:39.377Z,7.85
2023-04-18T10:13:44.079Z,8.35
2023-04-18T10:18:50.069Z,7.97
2023-04-18T10:23:52.698Z,8.90
2023-04-18T10:28:56.826Z,8.95
2023-04-18T10:34:05.778Z,7.72
2023-04-18T10:39:21.705Z,8.50
2023-04-18T10:44:24.422Z,9.48
2023-04-18T10:49:32.098Z,8.88
2023-04-18T10:54:39.055Z,9.02
2023-04-18T10:59:43.069Z,8.88
2023-04-18T11:04:50.933Z,9.27
2023-04-18T11:09:54.395Z,9.55
2023-04-18T11:14:56.998Z,9.95
2023-04-18T11:20:08.843Z,9.77
2023-04-18T11:25:11.586Z,9.00
2023-04-18T11:30:15.233Z,8.70
2023-04-18T11:35:19.432Z,8.88
2023-04-18T11:40:22.001Z,9.68
2023-04-18T11:45:24.601Z,9.00
2023-04-18T11:50:28.766Z,11.07
2023-04-18T11:55:31.379Z,9.10
2023-04-18T12:00:35.282Z,9.93
2023-04-18T12:05:39.488Z,9.10
2023-04-18T12:10:47.626Z,8.98
2023-04-18T12:15:50.546Z,9.27
2023-04-18T12:20:55.000Z,9.25
2023-04-18T12:26:01.326Z,8.75
2023-04-18T12:31:05.824Z,9.00
2023-04-18T12:36:11.162Z,8.73
2023-04-18T12:41:14.299Z,8.65
2023-04-18T12:46:17.066Z,8.50
2023-04-18T12:51:22.800Z,8.32
2023-04-18T12:56:25.352Z,8.70
2023-04-18T13:01:28.272Z,8.98
2023-04-18T13:06:32.209Z,8.75
2023-04-18T13:11:35.073Z,9.05
2023-04-18T13:16:38.008Z,7.80
2023-04-18T13:21:42.631Z,8.50
2023-04-18T13:26:45.469Z,7.85
2023-04-18T13:31:48.226Z,8.18
2023-04-18T13:36:52.255Z,8.68
2023-04-18T13:41:55.473Z,8.13
2023-04-18T13:46:58.487Z,8.63
2023-04-18T13:52:02.448Z,7.60
2023-04-18T13:57:11.479Z,9.07
2023-04-18T14:02:14.621Z,7.97
2023-04-18T14:07:18.922Z,7.72
2023-04-18T14:12:21.608Z,8.40
2023-04-18T14:17:24.353Z,7.85
2023-04-18T14:22:28.449Z,8.27
2023-04-18T14:27:31.062Z,8.90
2023-04-18T14:32:33.648Z,8.57
2023-04-18T14:37:37.712Z,8.55
2023-04-18T14:42:40.670Z,8.70
2023-04-18T14:47:44.049Z,8.10
2023-04-18T14:52:48.153Z,7.50
2023-04-18T14:57:50.776Z,7.57
2023-04-18T15:02:53.783Z,7.65
2023-04-18T15:07:58.082Z,8.40
2023-04-18T15:13:00.650Z,7.68
2023-04-18T15:18:03.428Z,7.85
2023-04-18T15:23:09.722Z,7.90
2023-04-18T15:28:13.317Z,7.60
2023-04-18T15:33:17.864Z,9.05
2023-04-18T15:38:22.167Z,8.55
2023-04-18T15:43:24.746Z,8.23
2023-04-18T15:48:28.534Z,8.43
2023-04-18T15:53:32.583Z,8.13
2023-04-18T15:58:35.290Z,8.43
2023-04-18T16:03:38.198Z,8.02
2023-04-18T16:08:42.457Z,8.75
2023-04-18T16:13:45.140Z,8.57
2023-04-18T16:18:47.687Z,8.57
2023-04-18T16:23:51.659Z,9.25
2023-04-18T16:28:54.339Z,8.85
2023-04-18T16:33:57.053Z,9.10
2023-04-18T16:39:01.149Z,8.75
2023-04-18T16:44:03.773Z,8.93
2023-04-18T16:49:06.366Z,9.80
2023-04-18T16:54:10.510Z,10.05
2023-04-18T16:59:13.100Z,10.13
2023-04-18T17:04:16.052Z,9.60
2023-04-18T17:09:20.456Z,9.60
2023-04-18T17:14:23.046Z,9.70
2023-04-18T17:19:26.258Z,9.60
2023-04-18T17:24:30.416Z,9.88
2023-04-18T17:29:33.241Z,8.77
2023-04-18T17:34:36.043Z,9.57
2023-04-18T17:39:40.749Z,8.95
2023-04-18T17:44:43.455Z,9.63
2023-04-18T17:49:46.296Z,8.65
2023-04-18T17:54:50.334Z,10.68
2023-04-18T17:59:53.457Z,9.48
2023-04-18T18:04:56.299Z,8.77
2023-04-18T18:10:00.807Z,9.23
2023-04-18T18:15:03.668Z,7.45
2023-04-18T18:20:08.693Z,8.77
2023-04-18T18:25:13.045Z,9.98
2023-04-18T18:30:16.208Z,9.38
2023-04-18T18:35:19.260Z,7.95
2023-04-18T18:40:23.380Z,8.73
2023-04-18T18:45:26.032Z,9.50
2023-04-18T18:50:28.776Z,8.55
2023-04-18T18:55:33.044Z,9.05
2023-04-18T19:00:35.644Z,7.90
2023-04-18T19:05:38.511Z,8.80
2023-04-18T19:10:43.353Z,9.55
2023-04-18T19:15:46.061Z,8.38
2023-04-18T19:20:49.526Z,8.00
2023-04-18T19:25:53.731Z,9.10
2023-04-18T19:30:56.404Z,9.98
2023-04-18T19:35:59.669Z,9.60
2023-04-18T19:41:03.565Z,8.68
2023-04-18T19:46:06.393Z,9.10
2023-04-18T19:51:09.029Z,10.15
2023-04-18T19:56:14.836Z,9.70
2023-04-18T20:01:19.205Z,9.85
2023-04-18T20:06:22.026Z,8.95
2023-04-18T20:11:25.959Z,10.38
2023-04-18T20:16:29.106Z,10.25
2023-04-18T20:21:32.086Z,8.70
2023-04-18T20:26:36.164Z,10.15
2023-04-18T20:31:42.150Z,10.25
2023-04-18T20:36:46.513Z,10.57
2023-04-18T20:41:51.745Z,11.13
2023-04-18T20:46:54.634Z,10.40
2023-04-18T20:51:57.220Z,10.10
2023-04-18T20:57:01.344Z,11.13
2023-04-18T21:02:04.167Z,10.80
2023-04-18T21:07:06.879Z,9.80
2023-04-18T21:12:10.790Z,10.77
2023-04-18T21:17:17.172Z,9.82
2023-04-18T21:22:19.929Z,9.00
2023-04-18T21:27:23.842Z,8.77
2023-04-18T21:32:26.546Z,7.60
2023-04-18T21:37:29.241Z,7.13
2023-04-18T21:42:35.380Z,6.45
2023-04-18T21:47:38.157Z,5.05
2023-04-18T21:52:40.838Z,5.82
2023-04-18T21:57:44.806Z,4.78
2023-04-18T22:02:47.646Z,4.90
2023-04-18T22:07:58.224Z,4.20
2023-04-18T22:13:04.337Z,3.75
2023-04-18T22:18:08.381Z,3.78
2023-04-18T22:23:11.625Z,3.78
2023-04-18T22:28:15.596Z,4.72
2023-04-18T22:33:18.212Z,3.65
2023-04-18T22:38:20.829Z,3.67
2023-04-18T22:43:24.929Z,3.65
2023-04-18T22:48:27.471Z,3.67
2023-04-18T22:53:30.164Z,3.80
2023-04-18T22:58:34.150Z,3.55
2023-04-18T23:03:36.880Z,3.72
2023-04-18T23:08:39.491Z,3.50
2023-04-18T23:13:43.439Z,3.80
2023-04-18T23:18:46.021Z,3.88
2023-04-18T23:23:48.982Z,3.88
2023-04-18T23:28:52.910Z,3.42
2023-04-18T23:33:56.277Z,3.47
2023-04-18T23:38:58.894Z,3.47
2023-04-18T23:44:02.851Z,3.92
2023-04-18T23:49:05.930Z,3.70
2023-04-18T23:54:08.573Z,3.90
2023-04-18T23:59:12.503Z,3.55
